createdAt,value
2023-01-05T00:01:50.007Z,101270.72
2023-01-05T00:04:18.769Z,101264.06
2023-01-05T00:06:47.039Z,101267.75
2023-01-05T00:09:19.263Z,101269.00
2023-01-05T00:12:05.276Z,101259.97
2023-01-05T00:14:49.035Z,101270.06
2023-01-05T00:17:38.517Z,101270.50
2023-01-05T00:20:31.698Z,101264.91
2023-01-05T00:22:59.958Z,101266.13
2023-01-05T00:25:31.098Z,101264.03
2023-01-05T00:27:59.419Z,101268.03
2023-01-05T00:30:30.157Z,101264.84
2023-01-05T00:32:59.772Z,101263.47
2023-01-05T00:35:28.081Z,101266.59
2023-01-05T00:37:56.429Z,101260.97
2023-01-05T00:40:24.798Z,101260.13
2023-01-05T00:42:53.029Z,101262.66
2023-01-05T00:45:22.127Z,101265.47
2023-01-05T00:47:51.933Z,101265.38
2023-01-05T00:50:23.538Z,101261.69
2023-01-05T00:52:51.851Z,101275.91
2023-01-05T00:55:20.212Z,101270.13
2023-01-05T00:57:48.395Z,101267.78
2023-01-05T01:00:19.840Z,101269.22
2023-01-05T01:02:48.609Z,101271.53
2023-01-05T01:05:17.040Z,101267.97
2023-01-05T01:07:48.682Z,101273.34
2023-01-05T01:10:17.142Z,101282.56
2023-01-05T01:12:45.375Z,101286.22
2023-01-05T01:15:13.645Z,101291.09
2023-01-05T01:17:41.860Z,101288.31
2023-01-05T01:20:11.219Z,101287.59
2023-01-05T01:22:39.526Z,101273.34
2023-01-05T01:25:10.450Z,101266.66
2023-01-05T01:27:38.677Z,101269.78
2023-01-05T01:30:08.875Z,101281.44
2023-01-05T01:32:37.193Z,101274.59
2023-01-05T01:35:06.230Z,101274.56
2023-01-05T01:37:34.510Z,101280.41
2023-01-05T01:40:02.785Z,101286.00
2023-01-05T01:42:32.380Z,101292.25
2023-01-05T01:45:02.563Z,101310.38
2023-01-05T01:47:43.161Z,101291.72
2023-01-05T01:50:18.384Z,101310.63
2023-01-05T01:52:49.274Z,101304.47
2023-01-05T01:55:18.717Z,101302.84
2023-01-05T01:57:49.554Z,101305.56
2023-01-05T02:00:21.408Z,101322.16
2023-01-05T02:02:52.813Z,101320.72
2023-01-05T02:05:24.678Z,101332.41
2023-01-05T02:07:52.880Z,101326.28
2023-01-05T02:10:37.740Z,101326.16
2023-01-05T02:13:31.071Z,101327.09
2023-01-05T02:16:08.785Z,101326.13
2023-01-05T02:19:07.668Z,101344.09
2023-01-05T02:21:49.092Z,101331.66
2023-01-05T02:24:51.272Z,101332.19
2023-01-05T02:27:49.632Z,101342.06
2023-01-05T02:31:01.215Z,101342.03
2023-01-05T02:33:42.403Z,101334.94
2023-01-05T02:36:24.993Z,101330.69
2023-01-05T02:39:03.504Z,101332.63
2023-01-05T02:41:38.247Z,101341.41
2023-01-05T02:44:09.519Z,101346.28
2023-01-05T02:46:39.128Z,101338.63
2023-01-05T02:49:08.407Z,101345.28
2023-01-05T02:51:42.056Z,101344.44
2023-01-05T02:54:18.076Z,101345.19
2023-01-05T02:56:55.733Z,101345.25
2023-01-05T02:59:28.551Z,101324.53
2023-01-05T03:02:02.054Z,101331.59
2023-01-05T03:04:34.557Z,101346.66
2023-01-05T03:07:05.952Z,101349.66
2023-01-05T03:09:39.250Z,101354.00
2023-01-05T03:12:33.352Z,101347.31
2023-01-05T03:15:07.591Z,101350.31
2023-01-05T03:17:44.355Z,101342.53
2023-01-05T03:20:14.690Z,101342.81
2023-01-05T03:23:04.334Z,101349.09
2023-01-05T03:25:53.129Z,101356.25
2023-01-05T03:28:42.843Z,101357.59
2023-01-05T03:31:36.622Z,101355.78
2023-01-05T03:34:30.203Z,101358.34
2023-01-05T03:37:04.609Z,101351.59
2023-01-05T03:39:35.212Z,101358.94
2023-01-05T03:42:03.779Z,101358.09
2023-01-05T03:44:31.971Z,101357.13
2023-01-05T03:47:00.583Z,101360.94
2023-01-05T03:49:30.180Z,101354.53
2023-01-05T03:51:58.522Z,101364.34
2023-01-05T03:54:26.726Z,101358.22
2023-01-05T03:56:54.979Z,101357.81
2023-01-05T03:59:23.259Z,101355.97
2023-01-05T04:01:51.609Z,101358.81
2023-01-05T04:04:19.893Z,101353.63
2023-01-05T04:06:49.494Z,101357.19
2023-01-05T04:09:17.684Z,101363.56
2023-01-05T04:11:45.941Z,101352.19
2023-01-05T04:14:14.119Z,101362.22
2023-01-05T04:16:42.323Z,101355.88
2023-01-05T04:19:11.767Z,101363.19
2023-01-05T04:21:39.985Z,101362.91
2023-01-05T04:24:11.086Z,101355.22
2023-01-05T04:26:39.543Z,101347.38
2023-01-05T04:29:07.736Z,101354.69
2023-01-05T04:31:35.979Z,101360.09
2023-01-05T04:34:04.248Z,101365.28
2023-01-05T04:36:32.482Z,101368.34
2023-01-05T04:39:00.727Z,101365.25
2023-01-05T04:41:30.281Z,101376.56
2023-01-05T04:43:58.492Z,101376.00
2023-01-05T04:46:26.784Z,101376.44
2023-01-05T04:48:55.048Z,101374.94
2023-01-05T04:51:23.277Z,101376.66
2023-01-05T04:53:51.537Z,101375.59
2023-01-05T04:56:19.785Z,101375.91
2023-01-05T04:58:49.396Z,101364.44
2023-01-05T05:01:17.698Z,101371.94
2023-01-05T05:03:46.035Z,101368.09
2023-01-05T05:06:14.299Z,101381.06
2023-01-05T05:08:42.531Z,101379.91
2023-01-05T05:11:10.774Z,101382.03
2023-01-05T05:13:39.041Z,101372.84
2023-01-05T05:16:09.652Z,101377.88
2023-01-05T05:18:38.007Z,101381.19
2023-01-05T05:21:06.673Z,101386.44
2023-01-05T05:23:34.965Z,101387.91
2023-01-05T05:26:03.227Z,101387.53
2023-01-05T05:28:31.487Z,101387.47
2023-01-05T05:30:59.747Z,101395.44
2023-01-05T05:33:29.360Z,101392.19
2023-01-05T05:35:57.572Z,101400.16
2023-01-05T05:38:25.839Z,101390.50
2023-01-05T05:40:54.497Z,101394.88
2023-01-05T05:43:22.743Z,101398.59
2023-01-05T05:45:51.194Z,101406.97
2023-01-05T05:48:19.856Z,101401.84
2023-01-05T05:50:49.443Z,101417.81
2023-01-05T05:53:17.714Z,101423.13
2023-01-05T05:55:49.855Z,101419.00
2023-01-05T05:58:18.455Z,101433.81
2023-01-05T06:00:47.021Z,101432.88
2023-01-05T06:03:15.468Z,101435.69
2023-01-05T06:05:43.871Z,101432.91
2023-01-05T06:08:13.449Z,101441.47
2023-01-05T06:10:41.666Z,101440.06
2023-01-05T06:13:09.961Z,101440.81
2023-01-05T06:15:38.217Z,101438.47
2023-01-05T06:18:06.583Z,101439.91
2023-01-05T06:20:35.231Z,101444.28
2023-01-05T06:23:03.851Z,101441.13
2023-01-05T06:25:34.118Z,101448.94
2023-01-05T06:28:02.478Z,101453.91
2023-01-05T06:30:31.046Z,101454.94
2023-01-05T06:32:59.796Z,101458.72
2023-01-05T06:35:28.472Z,101462.59
2023-01-05T06:37:56.734Z,101465.78
2023-01-05T06:40:25.100Z,101468.28
2023-01-05T06:42:54.693Z,101460.78
2023-01-05T06:45:23.064Z,101467.22
2023-01-05T06:47:51.277Z,101472.09
2023-01-05T06:50:19.721Z,101476.69
2023-01-05T06:52:48.216Z,101476.97
2023-01-05T06:55:16.488Z,101469.72
2023-01-05T06:57:44.673Z,101475.59
2023-01-05T07:00:16.161Z,101475.84
2023-01-05T07:02:44.417Z,101485.97
2023-01-05T07:05:12.671Z,101471.25
2023-01-05T07:07:40.979Z,101485.03
2023-01-05T07:10:10.540Z,101486.69
2023-01-05T07:12:38.879Z,101486.19
2023-01-05T07:15:08.934Z,101485.34
2023-01-05T07:17:38.686Z,101493.09
2023-01-05T07:20:08.646Z,101503.34
2023-01-05T07:22:37.090Z,101501.31
2023-01-05T07:25:05.918Z,101499.66
2023-01-05T07:27:34.452Z,101508.13
2023-01-05T07:30:02.713Z,101511.69
2023-01-05T07:32:30.907Z,101506.56
2023-01-05T07:35:00.510Z,101506.41
2023-01-05T07:37:28.787Z,101512.78
2023-01-05T07:39:56.990Z,101503.50
2023-01-05T07:42:26.121Z,101517.16
2023-01-05T07:44:54.414Z,101512.47
2023-01-05T07:47:22.969Z,101519.00
2023-01-05T07:49:51.187Z,101520.34
2023-01-05T07:52:20.792Z,101521.28
2023-01-05T07:54:48.994Z,101521.63
2023-01-05T07:57:17.341Z,101525.78
2023-01-05T07:59:45.525Z,101530.75
2023-01-05T08:02:13.884Z,101543.50
2023-01-05T08:04:42.267Z,101549.13
2023-01-05T08:07:11.569Z,101550.63
2023-01-05T08:09:58.979Z,101542.78
2023-01-05T08:12:28.382Z,101552.84
2023-01-05T08:14:56.702Z,101561.44
2023-01-05T08:17:24.956Z,101556.31
2023-01-05T08:19:53.169Z,101559.78
2023-01-05T08:22:21.400Z,101554.78
2023-01-05T08:24:52.241Z,101543.81
2023-01-05T08:27:20.475Z,101556.84
2023-01-05T08:29:48.723Z,101562.53
2023-01-05T08:32:16.924Z,101567.81
2023-01-05T08:34:47.958Z,101566.72
2023-01-05T08:37:20.222Z,101572.06
2023-01-05T08:39:49.794Z,101571.06
2023-01-05T08:42:18.313Z,101579.97
2023-01-05T08:44:46.833Z,101592.84
2023-01-05T08:47:17.065Z,101589.66
2023-01-05T08:49:47.184Z,101590.22
2023-01-05T08:52:15.467Z,101584.28
2023-01-05T08:54:43.879Z,101593.25
2023-01-05T08:57:13.496Z,101603.28
2023-01-05T08:59:41.914Z,101593.78
2023-01-05T09:02:13.136Z,101600.56
2023-01-05T09:04:41.584Z,101602.75
2023-01-05T09:07:09.870Z,101610.16
2023-01-05T09:09:38.108Z,101610.75
2023-01-05T09:12:07.474Z,101622.59
2023-01-05T09:14:37.143Z,101613.16
2023-01-05T09:17:07.318Z,101621.19
2023-01-05T09:19:36.492Z,101623.25
2023-01-05T09:22:05.230Z,101620.09
2023-01-05T09:24:33.774Z,101629.38
2023-01-05T09:27:03.748Z,101629.03
2023-01-05T09:29:32.368Z,101626.44
2023-01-05T09:32:02.245Z,101633.44
2023-01-05T09:34:30.651Z,101648.81
2023-01-05T09:36:58.891Z,101650.47
2023-01-05T09:39:27.302Z,101646.69
2023-01-05T09:41:58.888Z,101649.56
2023-01-05T09:44:32.151Z,101657.66
2023-01-05T09:47:07.231Z,101652.81
2023-01-05T09:49:36.588Z,101664.19
2023-01-05T09:52:10.799Z,101666.72
2023-01-05T09:54:40.581Z,101669.19
2023-01-05T09:57:18.781Z,101682.69
2023-01-05T09:59:50.235Z,101675.47
2023-01-05T10:02:28.283Z,101673.25
2023-01-05T10:04:58.151Z,101682.25
2023-01-05T10:07:39.128Z,101679.03
2023-01-05T10:10:21.493Z,101674.34
2023-01-05T10:13:03.342Z,101682.31
2023-01-05T10:15:39.571Z,101688.28
2023-01-05T10:18:15.246Z,101685.00
2023-01-05T10:21:00.568Z,101691.91
2023-01-05T10:23:47.764Z,101690.31
2023-01-05T10:26:25.397Z,101692.16
2023-01-05T10:29:03.456Z,101691.06
2023-01-05T10:31:53.633Z,101690.75
2023-01-05T10:34:33.189Z,101692.41
2023-01-05T10:37:27.565Z,101694.19
2023-01-05T10:40:12.108Z,101707.28
2023-01-05T10:42:54.515Z,101704.69
2023-01-05T10:45:23.147Z,101701.28
2023-01-05T10:47:51.851Z,101702.88
2023-01-05T10:50:36.656Z,101705.47
2023-01-05T10:53:11.854Z,101705.09
2023-01-05T10:55:52.275Z,101703.19
2023-01-05T10:58:24.533Z,101709.34
2023-01-05T11:00:56.685Z,101712.81
2023-01-05T11:04:14.141Z,101714.13
2023-01-05T11:06:31.256Z,101705.09
2023-01-05T11:09:21.837Z,101714.28
2023-01-05T11:11:59.326Z,101707.72
2023-01-05T11:14:29.303Z,101719.31
2023-01-05T11:17:04.988Z,101717.13
2023-01-05T11:19:38.099Z,101708.34
2023-01-05T11:22:32.508Z,101711.78
2023-01-05T11:25:25.368Z,101715.13
2023-01-05T11:28:15.876Z,101710.84
2023-01-05T11:31:00.365Z,101711.75
2023-01-05T11:33:31.113Z,101715.53
2023-01-05T11:35:59.914Z,101712.63
2023-01-05T11:38:32.358Z,101716.75
2023-01-05T11:41:02.031Z,101732.16
2023-01-05T11:43:34.038Z,101724.59
2023-01-05T11:46:05.704Z,101728.97
2023-01-05T11:48:37.062Z,101711.94
2023-01-05T11:51:05.857Z,101708.97
2023-01-05T11:53:42.006Z,101705.41
2023-01-05T11:56:22.324Z,101708.50
2023-01-05T11:58:52.380Z,101704.16
2023-01-05T12:01:55.431Z,101709.72
2023-01-05T12:04:38.959Z,101698.13
2023-01-05T12:07:30.145Z,101705.59
2023-01-05T12:10:33.363Z,101701.81
2023-01-05T12:13:14.433Z,101715.91
2023-01-05T12:16:13.701Z,101709.06
2023-01-05T12:19:11.121Z,101711.44
2023-01-05T12:21:46.145Z,101708.56
2023-01-05T12:24:53.890Z,101709.34
2023-01-05T12:27:43.929Z,101706.44
2023-01-05T12:34:05.127Z,101704.25
2023-01-05T12:36:51.034Z,101720.53
2023-01-05T12:39:51.634Z,101721.97
2023-01-05T12:42:47.439Z,101722.69
2023-01-05T12:45:45.611Z,101716.09
2023-01-05T12:48:20.072Z,101720.47
2023-01-05T12:50:55.861Z,101721.56
2023-01-05T12:53:39.634Z,101718.88
2023-01-05T12:56:21.133Z,101713.06
2023-01-05T12:59:07.967Z,101712.41
2023-01-05T13:01:43.580Z,101709.72
2023-01-05T13:04:34.309Z,101710.59
2023-01-05T13:07:11.564Z,101713.97
2023-01-05T13:09:40.269Z,101710.59
2023-01-05T13:12:13.157Z,101719.69
2023-01-05T13:14:52.750Z,101716.50
2023-01-05T13:17:27.175Z,101722.63
2023-01-05T13:20:03.696Z,101721.66
2023-01-05T13:22:37.113Z,101717.22
2023-01-05T13:25:15.290Z,101715.19
2023-01-05T13:27:44.180Z,101722.69
2023-01-05T13:30:23.904Z,101725.53
2023-01-05T13:33:38.058Z,101721.50
2023-01-05T13:36:23.230Z,101708.50
2023-01-05T13:39:21.436Z,101719.38
2023-01-05T13:42:28.566Z,101715.84
2023-01-05T13:45:28.345Z,101721.34
2023-01-05T13:48:45.262Z,101723.66
2023-01-05T13:51:47.727Z,101722.75
2023-01-05T13:54:21.362Z,101727.34
2023-01-05T13:56:50.704Z,101728.16
2023-01-05T13:59:34.952Z,101724.97
2023-01-05T14:02:06.348Z,101726.75
2023-01-05T14:04:37.187Z,101717.66
2023-01-05T14:07:12.672Z,101720.66
2023-01-05T14:09:55.655Z,101715.53
2023-01-05T14:12:48.827Z,101718.69
2023-01-05T14:15:41.964Z,101721.00
2023-01-05T14:18:12.489Z,101720.50
2023-01-05T14:20:48.872Z,101721.31
2023-01-05T14:23:58.267Z,101719.47
2023-01-05T14:27:06.834Z,101720.88
2023-01-05T14:30:27.582Z,101724.88
2023-01-05T14:33:04.427Z,101727.66
2023-01-05T14:35:37.295Z,101727.38
2023-01-05T14:38:14.713Z,101732.31
2023-01-05T14:40:46.207Z,101737.16
2023-01-05T14:43:30.690Z,101729.69
2023-01-05T14:46:05.538Z,101731.44
2023-01-05T14:48:37.968Z,101738.03
2023-01-05T14:51:24.707Z,101727.22
2023-01-05T14:53:54.580Z,101742.72
2023-01-05T14:56:26.946Z,101733.63
2023-01-05T14:59:05.849Z,101737.44
2023-01-05T15:04:21.444Z,101739.78
2023-01-05T15:07:32.541Z,101743.09
2023-01-05T15:10:32.797Z,101744.47
2023-01-05T15:13:23.900Z,101742.69
2023-01-05T15:16:00.918Z,101744.53
2023-01-05T15:19:12.420Z,101744.28
2023-01-05T15:22:13.422Z,101734.78
2023-01-05T15:25:39.241Z,101732.00
2023-01-05T15:29:07.296Z,101725.28
2023-01-05T15:31:41.801Z,101733.31
2023-01-05T15:34:22.709Z,101731.94
2023-01-05T15:36:58.132Z,101732.84
2023-01-05T15:39:31.867Z,101727.78
2023-01-05T15:42:06.173Z,101741.97
2023-01-05T15:44:41.248Z,101731.66
2023-01-05T15:47:11.806Z,101740.06
2023-01-05T15:49:41.019Z,101743.06
2023-01-05T15:52:21.570Z,101734.91
2023-01-05T15:55:05.286Z,101729.72
2023-01-05T15:57:33.537Z,101728.47
2023-01-05T16:00:01.796Z,101730.53
2023-01-05T16:02:31.641Z,101734.28
2023-01-05T16:05:15.619Z,101738.94
2023-01-05T16:07:54.773Z,101735.72
2023-01-05T16:10:30.092Z,101732.38
2023-01-05T16:13:18.280Z,101743.78
2023-01-05T16:15:51.161Z,101745.13
2023-01-05T16:18:24.539Z,101744.38
2023-01-05T16:20:55.942Z,101745.91
2023-01-05T16:23:36.232Z,101741.91
2023-01-05T16:26:06.588Z,101736.59
2023-01-05T16:28:34.798Z,101742.19
2023-01-05T16:31:15.503Z,101743.38
2023-01-05T16:33:46.010Z,101743.09
2023-01-05T16:36:20.392Z,101747.00
2023-01-05T16:38:49.471Z,101739.50
2023-01-05T16:41:26.787Z,101737.56
2023-01-05T16:43:58.451Z,101726.81
2023-01-05T16:46:37.186Z,101725.91
2023-01-05T16:49:38.858Z,101729.75
2023-01-05T16:52:23.858Z,101725.31
2023-01-05T16:55:27.548Z,101725.03
2023-01-05T16:57:58.639Z,101709.34
2023-01-05T17:00:40.323Z,101719.28
2023-01-05T17:03:31.337Z,101712.06
2023-01-05T17:06:02.066Z,101710.88
2023-01-05T17:08:35.897Z,101707.59
2023-01-05T17:11:08.480Z,101705.69
2023-01-05T17:13:42.493Z,101709.78
2023-01-05T17:16:12.816Z,101697.84
2023-01-05T17:18:41.255Z,101700.41
2023-01-05T17:21:13.656Z,101703.63
2023-01-05T17:23:46.887Z,101707.81
2023-01-05T17:26:21.222Z,101701.03
2023-01-05T17:28:51.969Z,101692.00
2023-01-05T17:31:20.235Z,101693.75
2023-01-05T17:33:48.557Z,101692.00
2023-01-05T17:36:17.686Z,101692.50
2023-01-05T17:38:46.671Z,101689.09
2023-01-05T17:41:16.881Z,101690.13
2023-01-05T17:43:45.890Z,101688.94
2023-01-05T17:46:21.362Z,101689.94
2023-01-05T17:48:50.066Z,101695.94
2023-01-05T17:51:18.345Z,101697.13
2023-01-05T17:53:46.593Z,101691.84
2023-01-05T17:56:18.623Z,101694.41
2023-01-05T17:58:48.299Z,101695.66
2023-01-05T18:01:18.033Z,101687.91
2023-01-05T18:06:19.468Z,101697.66
2023-01-05T18:08:47.948Z,101683.47
2023-01-05T18:11:17.493Z,101682.41
2023-01-05T18:13:46.143Z,101674.75
2023-01-05T18:16:14.986Z,101666.59
2023-01-05T18:18:45.049Z,101662.94
2023-01-05T18:21:13.482Z,101665.13
2023-01-05T18:23:41.662Z,101666.13
2023-01-05T18:26:11.653Z,101670.31
2023-01-05T18:28:39.875Z,101670.63
2023-01-05T18:31:12.712Z,101675.34
2023-01-05T18:33:41.354Z,101667.38
2023-01-05T18:36:14.881Z,101660.88
2023-01-05T18:38:43.532Z,101665.72
2023-01-05T18:41:12.778Z,101664.06
2023-01-05T18:43:41.266Z,101663.75
2023-01-05T18:46:09.554Z,101663.69
2023-01-05T18:48:37.778Z,101655.25
2023-01-05T18:51:08.065Z,101654.44
2023-01-05T18:53:40.210Z,101652.13
2023-01-05T18:56:10.151Z,101651.38
2023-01-05T18:58:38.560Z,101653.41
2023-01-05T19:01:12.858Z,101652.38
2023-01-05T19:03:41.519Z,101653.97
2023-01-05T19:06:13.887Z,101651.56
2023-01-05T19:08:45.264Z,101649.31
2023-01-05T19:11:15.858Z,101637.72
2023-01-05T19:13:45.319Z,101651.03
2023-01-05T19:16:15.218Z,101646.59
2023-01-05T19:18:43.931Z,101651.88
2023-01-05T19:21:12.155Z,101644.66
2023-01-05T19:23:40.347Z,101640.31
2023-01-05T19:26:10.394Z,101638.84
2023-01-05T19:28:40.334Z,101640.66
2023-01-05T19:31:10.430Z,101631.69
2023-01-05T19:33:39.940Z,101626.72
2023-01-05T19:36:11.779Z,101628.50
2023-01-05T19:38:40.505Z,101632.81
2023-01-05T19:41:14.146Z,101631.47
2023-01-05T19:43:42.871Z,101624.69
2023-01-05T19:46:14.868Z,101619.25
2023-01-05T19:48:44.297Z,101624.00
2023-01-05T19:51:16.797Z,101621.50
2023-01-05T19:53:45.915Z,101625.28
2023-01-05T19:56:17.005Z,101623.88
2023-01-05T19:58:45.683Z,101623.16
2023-01-05T20:01:16.810Z,101633.56
2023-01-05T20:03:46.822Z,101626.38
2023-01-05T20:06:19.056Z,101632.84
2023-01-05T20:08:52.481Z,101626.91
2023-01-05T20:11:36.635Z,101636.69
2023-01-05T20:14:06.046Z,101637.41
2023-01-05T20:16:34.786Z,101635.97
2023-01-05T20:19:03.455Z,101624.38
2023-01-05T20:21:32.562Z,101619.75
2023-01-05T20:24:01.971Z,101622.72
2023-01-05T20:26:32.240Z,101619.41
2023-01-05T20:29:01.401Z,101611.88
2023-01-05T20:31:32.851Z,101607.22
2023-01-05T20:34:03.934Z,101601.22
2023-01-05T20:36:32.749Z,101607.78
2023-01-05T20:39:05.987Z,101610.38
2023-01-05T20:41:38.883Z,101611.50
2023-01-05T20:44:08.740Z,101617.59
2023-01-05T20:46:40.169Z,101615.22
2023-01-05T20:49:08.697Z,101614.59
2023-01-05T20:51:37.376Z,101611.59
2023-01-05T20:54:08.983Z,101609.31
2023-01-05T20:56:41.664Z,101611.75
2023-01-05T20:59:15.711Z,101608.00
2023-01-05T21:01:44.819Z,101610.66
2023-01-05T21:04:13.944Z,101614.66
2023-01-05T21:06:43.095Z,101620.28
2023-01-05T21:09:12.138Z,101617.59
2023-01-05T21:11:42.841Z,101616.28
2023-01-05T21:14:13.575Z,101612.38
2023-01-05T21:16:46.238Z,101603.03
2023-01-05T21:19:17.925Z,101609.03
2023-01-05T21:21:47.232Z,101607.28
2023-01-05T21:24:16.887Z,101609.00
2023-01-05T21:26:46.718Z,101609.34
2023-01-05T21:29:16.172Z,101608.00
2023-01-05T21:31:44.699Z,101608.84
2023-01-05T21:34:13.997Z,101606.84
2023-01-05T21:36:45.910Z,101602.00
2023-01-05T21:39:19.806Z,101600.06
2023-01-05T21:42:08.386Z,101603.00
2023-01-05T21:44:36.935Z,101611.06
2023-01-05T21:47:06.803Z,101605.38
2023-01-05T21:49:35.256Z,101598.66
2023-01-05T21:52:21.425Z,101600.59
2023-01-05T21:55:07.371Z,101599.31
2023-01-05T21:57:37.214Z,101588.81
2023-01-05T22:00:07.580Z,101593.91
2023-01-05T22:02:35.942Z,101594.53
2023-01-05T22:05:04.584Z,101597.25
2023-01-05T22:07:32.840Z,101594.22
2023-01-05T22:10:01.118Z,101592.66
2023-01-05T22:12:29.326Z,101596.00
2023-01-05T22:14:59.036Z,101594.13
2023-01-05T22:17:27.264Z,101591.88
2023-01-05T22:19:55.525Z,101589.63
2023-01-05T22:22:24.117Z,101588.47
2023-01-05T22:24:52.407Z,101578.63
2023-01-05T22:27:20.792Z,101579.63
2023-01-05T22:29:49.054Z,101582.50
2023-01-05T22:32:18.637Z,101569.75
2023-01-05T22:34:47.570Z,101556.28
2023-01-05T22:37:16.328Z,101557.44
2023-01-05T22:39:44.565Z,101559.53
2023-01-05T22:42:12.758Z,101554.28
2023-01-05T22:44:41.022Z,101551.16
2023-01-05T22:47:09.247Z,101548.88
2023-01-05T22:49:38.846Z,101558.00
2023-01-05T22:52:07.395Z,101560.44
2023-01-05T22:54:35.639Z,101560.72
2023-01-05T22:57:03.913Z,101573.41
2023-01-05T22:59:32.183Z,101567.75
2023-01-05T23:02:00.505Z,101567.41
2023-01-05T23:04:28.773Z,101565.72
2023-01-05T23:06:58.392Z,101565.03
2023-01-05T23:09:26.591Z,101561.09
2023-01-05T23:11:54.789Z,101565.03
2023-01-05T23:14:23.020Z,101560.91
2023-01-05T23:16:51.273Z,101560.13
2023-01-05T23:19:19.827Z,101557.78
2023-01-05T23:21:48.722Z,101550.69
2023-01-05T23:24:18.318Z,101552.41
2023-01-05T23:26:46.681Z,101542.22
2023-01-05T23:29:14.897Z,101546.81
2023-01-05T23:31:43.173Z,101551.19
2023-01-05T23:34:11.381Z,101544.63
2023-01-05T23:36:39.605Z,101535.56
2023-01-05T23:39:07.812Z,101536.13
2023-01-05T23:41:37.389Z,101539.25
2023-01-05T23:44:07.922Z,101544.16
2023-01-05T23:46:36.226Z,101542.34
2023-01-05T23:49:04.988Z,101545.25
2023-01-05T23:51:33.243Z,101543.91
2023-01-05T23:54:01.627Z,101548.84
2023-01-05T23:56:32.197Z,101545.69
2023-01-05T23:59:05.415Z,101541.50
